createdAt,value
2018-05-18T00:01:36.172Z,25.35
2018-05-18T00:04:09.900Z,33.08
2018-05-18T00:06:41.560Z,25.33
2018-05-18T00:09:17.324Z,25.83
2018-05-18T00:11:51.792Z,21.60
2018-05-18T00:14:36.372Z,26.48
2018-05-18T00:17:12.289Z,27.85
2018-05-18T00:19:42.128Z,25.33
2018-05-18T00:22:11.028Z,18.12
2018-05-18T00:24:41.725Z,14.80
2018-05-18T00:27:09.752Z,22.02
2018-05-18T00:29:39.663Z,18.35
2018-05-18T00:32:07.707Z,16.62
2018-05-18T00:34:37.623Z,28.35
2018-05-18T00:37:06.416Z,20.00
2018-05-18T00:39:40.003Z,14.27
2018-05-18T00:42:11.736Z,19.02
2018-05-18T00:44:46.244Z,12.00
2018-05-18T00:47:15.168Z,19.58
2018-05-18T00:49:46.869Z,14.13
2018-05-18T00:52:17.991Z,15.50
2018-05-18T00:54:46.956Z,15.07
2018-05-18T00:57:14.992Z,25.10
2018-05-18T00:59:43.971Z,16.08
2018-05-18T01:02:13.871Z,17.85
2018-05-18T01:05:00.781Z,22.77
2018-05-18T01:07:33.004Z,19.98
2018-05-18T01:10:01.987Z,18.12
2018-05-18T01:12:31.915Z,19.12
2018-05-18T01:15:12.131Z,18.67
2018-05-18T01:17:43.243Z,16.73
2018-05-18T01:20:12.172Z,13.70
2018-05-18T01:22:47.819Z,21.15
2018-05-18T01:25:17.772Z,24.20
2018-05-18T01:27:45.791Z,18.15
2018-05-18T01:30:25.279Z,16.48
2018-05-18T01:32:55.277Z,16.12
2018-05-18T01:35:24.192Z,16.37
2018-05-18T01:38:00.803Z,17.40
2018-05-18T01:40:30.751Z,16.40
2018-05-18T01:43:03.803Z,22.23
2018-05-18T01:45:31.815Z,22.42
2018-05-18T01:48:00.731Z,17.08
2018-05-18T01:50:29.703Z,22.17
2018-05-18T01:52:57.723Z,23.75
2018-05-18T01:55:25.732Z,11.43
2018-05-18T01:57:57.307Z,18.67
2018-05-18T02:00:28.047Z,16.92
2018-05-18T02:03:11.488Z,15.20
2018-05-18T02:05:40.284Z,19.95
2018-05-18T02:08:12.407Z,22.92
2018-05-18T02:10:45.059Z,13.93
2018-05-18T02:13:13.087Z,15.07
2018-05-18T02:15:44.895Z,15.15
2018-05-18T02:18:13.835Z,15.20
2018-05-18T02:20:44.523Z,12.82
2018-05-18T02:23:13.515Z,14.15
2018-05-18T02:25:41.531Z,27.92
2018-05-18T02:28:13.731Z,24.87
2018-05-18T02:30:49.379Z,50.22
2018-05-18T02:33:20.415Z,25.05
2018-05-18T02:36:12.332Z,31.02
2018-05-18T02:38:44.060Z,18.27
2018-05-18T02:41:13.839Z,19.30
2018-05-18T02:43:42.835Z,26.02
2018-05-18T02:46:12.789Z,24.63
2018-05-18T02:48:41.571Z,18.15
2018-05-18T02:51:09.703Z,20.00
2018-05-18T02:53:43.583Z,28.12
2018-05-18T02:56:13.504Z,18.42
2018-05-18T02:58:41.539Z,17.20
2018-05-18T03:01:13.151Z,15.18
2018-05-18T03:03:43.176Z,14.25
2018-05-18T03:06:14.451Z,18.08
2018-05-18T03:09:00.475Z,19.35
2018-05-18T03:11:31.889Z,15.93
2018-05-18T03:14:10.239Z,17.98
2018-05-18T03:16:38.266Z,15.38
2018-05-18T03:19:14.071Z,14.20
2018-05-18T03:21:42.095Z,14.10
2018-05-18T03:24:15.667Z,12.57
2018-05-18T03:26:56.218Z,33.08
2018-05-18T03:29:25.134Z,21.60
2018-05-18T03:31:55.042Z,20.70
2018-05-18T03:34:37.186Z,20.33
2018-05-18T03:37:19.773Z,27.35
2018-05-18T03:39:48.987Z,27.05
2018-05-18T03:42:21.714Z,32.45
2018-05-18T03:44:49.734Z,44.92
2018-05-18T03:47:21.359Z,40.05
2018-05-18T03:49:50.298Z,34.03
2018-05-18T03:52:24.110Z,17.37
2018-05-18T03:54:59.578Z,19.30
2018-05-18T03:57:40.061Z,18.67
2018-05-18T04:00:08.122Z,20.85
2018-05-18T04:02:54.759Z,26.00
2018-05-18T04:08:46.191Z,25.30
2018-05-18T04:11:14.994Z,23.20
2018-05-18T04:19:44.736Z,36.65
2018-05-18T04:22:12.946Z,41.50
2018-05-18T04:24:44.619Z,31.30
2018-05-18T04:27:13.734Z,27.00
2018-05-18T04:29:41.746Z,44.85
2018-05-18T04:32:11.690Z,31.50
2018-05-18T04:34:39.754Z,30.88
2018-05-18T04:37:11.938Z,39.53
2018-05-18T04:39:43.750Z,34.92
2018-05-18T04:42:11.754Z,48.05
2018-05-18T04:44:39.779Z,31.87
2018-05-18T04:47:07.858Z,31.40
2018-05-18T04:49:35.875Z,36.80
2018-05-18T04:52:07.090Z,33.10
2018-05-18T04:54:35.122Z,28.87
2018-05-18T04:57:18.675Z,32.30
2018-05-18T04:59:46.694Z,37.35
2018-05-18T05:02:20.793Z,42.67
2018-05-18T05:04:49.146Z,35.10
2018-05-18T05:07:19.086Z,35.20
2018-05-18T05:09:47.122Z,31.17
2018-05-18T05:12:15.145Z,38.80
2018-05-18T05:17:39.842Z,46.40
2018-05-18T05:20:13.550Z,35.90
2018-05-18T05:22:47.136Z,45.85
2018-05-18T05:25:26.482Z,43.40
2018-05-18T05:27:54.514Z,30.48
2018-05-18T05:30:28.402Z,39.60
2018-05-18T05:32:56.395Z,46.63
2018-05-18T05:38:34.030Z,37.40
2018-05-18T05:41:03.050Z,37.03
2018-05-18T05:46:28.660Z,25.30
2018-05-18T05:49:02.574Z,43.60
2018-05-18T05:51:45.778Z,28.67
2018-05-18T05:54:25.734Z,29.80
2018-05-18T05:56:57.750Z,36.27
2018-05-18T05:59:37.230Z,26.87
2018-05-18T06:05:15.315Z,28.37
2018-05-18T06:07:56.890Z,24.00
2018-05-18T06:10:30.386Z,34.53
2018-05-18T06:12:58.429Z,23.17
2018-05-18T06:15:44.357Z,20.83
2018-05-18T06:18:15.093Z,26.03
2018-05-18T06:20:43.891Z,29.77
2018-05-18T06:23:13.824Z,29.13
2018-05-18T06:25:46.341Z,24.00
2018-05-18T06:28:14.366Z,18.87
2018-05-18T06:30:44.318Z,22.70
2018-05-18T06:33:12.350Z,33.73
2018-05-18T06:35:46.886Z,50.60
2018-05-18T06:38:14.931Z,23.03
2018-05-18T06:40:42.954Z,24.90
2018-05-18T06:43:11.941Z,21.60
2018-05-18T06:45:44.316Z,24.00
2018-05-18T06:48:13.236Z,23.03
2018-05-18T06:50:42.076Z,24.50
2018-05-18T06:53:15.012Z,27.10
2018-05-18T06:55:44.707Z,39.40
2018-05-18T06:58:15.435Z,20.10
2018-05-18T07:03:39.219Z,27.87
2018-05-18T07:06:07.243Z,31.70
2018-05-18T07:08:36.024Z,23.90
2018-05-18T07:11:15.231Z,23.73
2018-05-18T07:13:48.179Z,29.33
2018-05-18T07:16:16.207Z,21.70
2018-05-18T07:18:46.150Z,29.80
2018-05-18T07:21:15.071Z,28.93
2018-05-18T07:23:43.898Z,16.60
2018-05-18T07:26:14.884Z,22.80
2018-05-18T07:28:56.208Z,23.93
2018-05-18T07:31:24.236Z,20.90
2018-05-18T07:33:52.264Z,16.83
2018-05-18T07:36:27.012Z,20.20
2018-05-18T07:38:56.731Z,15.90
2018-05-18T07:41:35.539Z,19.90
2018-05-18T07:44:07.520Z,19.23
2018-05-18T07:46:35.543Z,22.00
2018-05-18T07:49:15.944Z,24.87
2018-05-18T07:51:44.000Z,25.53
2018-05-18T07:54:12.045Z,24.40
2018-05-18T07:56:42.069Z,32.13
2018-05-18T07:59:11.014Z,24.80
2018-05-18T08:01:39.929Z,20.97
2018-05-18T08:04:12.587Z,18.10
2018-05-18T08:06:41.561Z,20.23
2018-05-18T08:09:13.977Z,20.50
2018-05-18T08:11:42.921Z,23.67
2018-05-18T08:14:10.941Z,18.77
2018-05-18T08:16:38.986Z,22.60
2018-05-18T08:19:06.997Z,22.70
2018-05-18T08:21:39.255Z,23.30
2018-05-18T08:24:08.916Z,18.23
2018-05-18T08:26:37.913Z,23.63
2018-05-18T08:29:22.716Z,27.60
2018-05-18T08:31:51.717Z,23.40
2018-05-18T08:34:19.725Z,23.83
2018-05-18T08:36:49.745Z,29.83
2018-05-18T08:39:21.498Z,22.53
2018-05-18T08:42:00.005Z,18.43
2018-05-18T08:44:37.774Z,19.83
2018-05-18T08:47:12.533Z,25.47
2018-05-18T08:49:40.548Z,18.80
2018-05-18T08:52:11.565Z,15.10
2018-05-18T08:54:40.549Z,17.00
2018-05-18T08:57:08.566Z,20.80
2018-05-18T08:59:36.610Z,17.33
2018-05-18T09:02:04.638Z,23.23
2018-05-18T09:04:46.757Z,24.93
2018-05-18T09:07:18.101Z,23.67
2018-05-18T09:09:46.137Z,21.17
2018-05-18T09:12:16.093Z,19.47
2018-05-18T09:14:50.373Z,26.93
2018-05-18T09:17:19.397Z,19.60
2018-05-18T09:19:48.389Z,24.87
2018-05-18T09:22:29.279Z,26.90
2018-05-18T09:25:07.313Z,15.97
2018-05-18T09:27:42.097Z,16.37
2018-05-18T09:30:12.121Z,20.17
2018-05-18T09:32:45.830Z,17.10
2018-05-18T09:35:15.838Z,19.87
2018-05-18T09:37:44.130Z,29.73
2018-05-18T09:40:20.149Z,20.20
2018-05-18T09:43:01.705Z,17.20
2018-05-18T09:45:30.633Z,27.00
2018-05-18T09:48:06.257Z,24.30
2018-05-18T09:50:40.149Z,22.63
2018-05-18T09:53:09.093Z,26.23
2018-05-18T09:55:44.549Z,28.63
2018-05-18T09:58:16.653Z,21.00
2018-05-18T10:00:50.317Z,24.47
2018-05-18T10:03:20.329Z,23.87
2018-05-18T10:06:00.585Z,19.17
2018-05-18T10:08:48.573Z,22.60
2018-05-18T10:11:18.524Z,19.50
2018-05-18T10:13:56.703Z,19.07
2018-05-18T10:16:26.696Z,18.07
2018-05-18T10:19:11.645Z,22.23
2018-05-18T10:21:46.440Z,24.20
2018-05-18T10:24:27.863Z,16.20
2018-05-18T10:27:01.399Z,19.47
2018-05-18T10:29:31.440Z,21.73
2018-05-18T10:32:00.432Z,24.80
2018-05-18T10:34:28.464Z,19.57
2018-05-18T10:37:08.132Z,25.90
2018-05-18T10:39:37.200Z,20.17
2018-05-18T10:42:09.104Z,20.47
2018-05-18T10:44:39.176Z,24.33
2018-05-18T10:47:13.644Z,17.40
2018-05-18T10:49:54.146Z,23.67
2018-05-18T10:52:30.472Z,19.87
2018-05-18T10:55:15.296Z,18.07
2018-05-18T11:03:34.733Z,22.67
2018-05-18T11:06:14.444Z,21.17
2018-05-18T11:08:45.291Z,22.70
2018-05-18T11:11:20.444Z,18.50
2018-05-18T11:14:02.202Z,18.60
2018-05-18T11:16:30.976Z,19.90
2018-05-18T11:19:00.843Z,19.10
2018-05-18T11:21:34.584Z,21.50
2018-05-18T11:24:17.392Z,22.43
2018-05-18T11:26:48.152Z,16.23
2018-05-18T11:29:20.475Z,24.60
2018-05-18T11:31:53.464Z,25.80
2018-05-18T11:34:22.472Z,32.37
2018-05-18T11:36:52.460Z,18.07
2018-05-18T11:39:23.933Z,21.53
2018-05-18T11:41:51.959Z,18.07
2018-05-18T11:44:27.116Z,19.70
2018-05-18T11:46:56.116Z,23.53
2018-05-18T11:49:31.991Z,17.47
2018-05-18T11:52:01.788Z,21.47
2018-05-18T11:54:30.781Z,16.43
2018-05-18T11:57:02.247Z,22.57
2018-05-18T11:59:35.908Z,22.23
2018-05-18T12:02:04.884Z,17.90
2018-05-18T12:04:37.683Z,17.10
2018-05-18T12:07:16.244Z,13.80
2018-05-18T12:09:48.276Z,20.70
2018-05-18T12:12:20.060Z,20.97
2018-05-18T12:15:08.232Z,19.03
2018-05-18T12:17:59.872Z,18.17
2018-05-18T12:20:31.552Z,23.00
2018-05-18T12:23:00.549Z,15.23
2018-05-18T12:25:28.560Z,16.67
2018-05-18T12:27:58.232Z,18.03
2018-05-18T12:33:32.404Z,17.27
2018-05-18T12:36:00.440Z,23.30
2018-05-18T12:38:32.698Z,23.60
2018-05-18T12:41:01.693Z,22.87
2018-05-18T12:43:29.716Z,21.13
2018-05-18T12:46:00.701Z,18.63
2018-05-18T12:48:32.605Z,17.00
2018-05-18T12:51:06.184Z,17.87
2018-05-18T12:53:36.035Z,14.43
2018-05-18T12:56:03.992Z,15.23
2018-05-18T12:58:32.932Z,22.80
2018-05-18T13:01:01.013Z,15.30
2018-05-18T13:03:44.072Z,15.50
2018-05-18T13:06:15.288Z,16.47
2018-05-18T13:08:49.068Z,17.60
2018-05-18T13:11:25.436Z,13.40
2018-05-18T13:13:54.428Z,15.97
2018-05-18T13:16:24.516Z,19.83
2018-05-18T13:18:54.456Z,15.07
2018-05-18T13:21:24.469Z,14.20
2018-05-18T13:23:53.476Z,20.67
2018-05-18T13:26:22.456Z,12.60
2018-05-18T13:29:04.004Z,17.20
2018-05-18T13:31:42.972Z,20.20
2018-05-18T13:34:15.024Z,16.57
2018-05-18T13:36:47.888Z,12.93
2018-05-18T13:39:46.496Z,17.03
2018-05-18T13:42:19.204Z,16.10
2018-05-18T13:44:47.256Z,14.80
2018-05-18T13:47:18.840Z,12.93
2018-05-18T13:49:49.595Z,17.33
2018-05-18T13:52:18.411Z,12.40
2018-05-18T13:54:47.469Z,16.50
2018-05-18T13:57:18.430Z,17.97
2018-05-18T14:02:44.470Z,13.83
2018-05-18T14:05:16.880Z,14.53
2018-05-18T14:07:57.811Z,15.80
2018-05-18T14:10:26.744Z,13.97
2018-05-18T14:12:54.769Z,11.03
2018-05-18T14:15:22.784Z,15.70
2018-05-18T14:17:52.809Z,15.10
2018-05-18T14:20:28.256Z,12.27
2018-05-18T14:23:06.836Z,16.63
2018-05-18T14:25:35.875Z,13.07
2018-05-18T14:28:04.648Z,9.33
2018-05-18T14:30:36.291Z,14.83
2018-05-18T14:33:04.312Z,16.73
2018-05-18T14:35:33.844Z,11.63
2018-05-18T14:38:03.852Z,14.53
2018-05-18T14:40:35.989Z,10.90
2018-05-18T14:43:27.537Z,12.50
2018-05-18T14:46:01.889Z,12.60
2018-05-18T14:48:31.927Z,15.30
2018-05-18T14:51:02.804Z,11.40
2018-05-18T14:53:31.796Z,16.93
2018-05-18T14:55:59.811Z,12.53
2018-05-18T14:58:28.885Z,12.20
2018-05-18T15:00:56.848Z,13.30
2018-05-18T15:03:25.847Z,11.57
2018-05-18T15:05:56.908Z,13.87
2018-05-18T15:08:24.944Z,11.43
2018-05-18T15:13:50.927Z,13.07
2018-05-18T15:16:19.985Z,20.10
2018-05-18T15:19:13.120Z,17.17
2018-05-18T15:21:42.007Z,11.30
2018-05-18T15:24:17.299Z,10.93
2018-05-18T15:26:46.299Z,15.93
2018-05-18T15:29:20.911Z,11.73
2018-05-18T15:31:52.611Z,11.53
2018-05-18T15:34:20.638Z,12.03
2018-05-18T15:36:48.683Z,9.47
2018-05-18T15:39:37.363Z,10.47
2018-05-18T15:42:05.591Z,14.00
2018-05-18T15:44:36.726Z,10.50
2018-05-18T15:47:24.297Z,11.63
2018-05-18T15:50:00.239Z,12.50
2018-05-18T15:52:32.887Z,11.27
2018-05-18T15:55:06.267Z,12.77
2018-05-18T15:57:41.006Z,13.47
2018-05-18T16:00:21.999Z,9.47
2018-05-18T16:02:53.143Z,14.30
2018-05-18T16:05:42.815Z,15.90
2018-05-18T16:08:14.427Z,11.93
2018-05-18T16:10:42.464Z,13.37
2018-05-18T16:13:14.780Z,17.47
2018-05-18T16:15:45.519Z,11.70
2018-05-18T16:21:09.483Z,13.60
2018-05-18T16:23:38.627Z,12.10
2018-05-18T16:26:07.615Z,13.87
2018-05-18T16:28:40.659Z,11.97
2018-05-18T16:31:20.187Z,11.87
2018-05-18T16:33:49.183Z,11.60
2018-05-18T16:36:21.755Z,9.80
2018-05-18T16:39:11.295Z,11.10
2018-05-18T16:41:43.818Z,12.53
2018-05-18T16:44:20.171Z,11.17
2018-05-18T16:46:49.159Z,9.00
2018-05-18T16:49:19.193Z,11.67
2018-05-18T16:51:47.219Z,11.10
2018-05-18T16:57:08.571Z,11.60
2018-05-18T16:59:40.867Z,12.17
2018-05-18T17:02:27.913Z,9.93
2018-05-18T17:04:59.147Z,10.93
2018-05-18T17:07:27.642Z,16.23
2018-05-18T17:09:55.678Z,14.23
2018-05-18T17:12:33.974Z,12.20
2018-05-18T17:15:02.811Z,13.53
2018-05-18T17:17:32.587Z,10.60
2018-05-18T17:20:16.711Z,11.47
2018-05-18T17:22:49.919Z,10.77
2018-05-18T17:25:28.523Z,14.43
2018-05-18T17:28:01.463Z,9.80
2018-05-18T17:30:32.363Z,12.60
2018-05-18T17:33:04.989Z,11.07
2018-05-18T17:35:57.373Z,16.10
2018-05-18T17:38:26.374Z,9.47
2018-05-18T17:40:58.034Z,11.03
2018-05-18T17:43:27.026Z,7.80
2018-05-18T17:46:14.306Z,9.70
2018-05-18T17:51:46.374Z,8.43
2018-05-18T17:54:21.133Z,9.07
2018-05-18T17:56:54.894Z,8.20
2018-05-18T17:59:27.842Z,9.90
2018-05-18T18:02:13.774Z,9.03
2018-05-18T18:04:43.758Z,10.53
2018-05-18T18:07:26.022Z,10.57
2018-05-18T18:10:03.439Z,11.17
2018-05-18T18:12:41.034Z,7.90
2018-05-18T18:15:14.558Z,7.53
2018-05-18T18:17:47.402Z,9.80
2018-05-18T18:20:18.871Z,10.23
2018-05-18T18:23:00.022Z,13.30
2018-05-18T18:25:32.294Z,12.60
2018-05-18T18:28:21.143Z,7.93
2018-05-18T18:30:50.077Z,9.30
2018-05-18T18:33:24.930Z,6.67
2018-05-18T18:36:03.575Z,8.33
2018-05-18T18:38:32.670Z,8.97
2018-05-18T18:41:11.010Z,8.83
2018-05-18T18:43:39.055Z,9.70
2018-05-18T18:46:07.957Z,10.33
2018-05-18T18:48:39.857Z,21.30
2018-05-18T18:51:13.322Z,14.03
2018-05-18T18:53:43.359Z,11.40
2018-05-18T18:56:19.470Z,11.87
2018-05-18T18:58:52.725Z,9.33
2018-05-18T19:01:21.518Z,9.73
2018-05-18T19:03:54.637Z,9.80
2018-05-18T19:06:22.926Z,8.07
2018-05-18T19:08:54.310Z,9.80
2018-05-18T19:11:29.653Z,8.67
2018-05-18T19:14:01.418Z,8.93
2018-05-18T19:19:31.289Z,14.60
2018-05-18T19:22:06.866Z,13.50
2018-05-18T19:24:51.438Z,13.10
2018-05-18T19:27:21.454Z,11.17
2018-05-18T19:29:53.638Z,7.80
2018-05-18T19:32:22.426Z,9.43
2018-05-18T19:34:53.162Z,10.77
2018-05-18T19:37:33.215Z,10.57
2018-05-18T19:40:03.970Z,9.43
2018-05-18T19:42:37.022Z,15.10
2018-05-18T19:45:05.078Z,12.90
2018-05-18T19:47:34.078Z,11.17
2018-05-18T19:50:03.127Z,13.30
2018-05-18T19:52:32.005Z,10.93
2018-05-18T19:55:03.482Z,10.67
2018-05-18T19:57:42.834Z,13.40
2018-05-18T20:00:15.938Z,12.30
2018-05-18T20:02:43.969Z,9.50
2018-05-18T20:05:17.506Z,13.50
2018-05-18T20:07:52.934Z,13.50
2018-05-18T20:10:31.094Z,8.70
2018-05-18T20:13:13.258Z,13.60
2018-05-18T20:15:45.966Z,8.27
2018-05-18T20:18:14.766Z,12.80
2018-05-18T20:20:46.410Z,10.63
2018-05-18T20:23:18.137Z,11.52
2018-05-18T20:26:06.906Z,11.63
2018-05-18T20:28:37.718Z,14.87
2018-05-18T20:31:06.774Z,11.82
2018-05-18T20:33:34.829Z,11.85
2018-05-18T20:36:03.777Z,13.85
2018-05-18T20:38:40.122Z,10.18
2018-05-18T20:41:14.050Z,12.93
2018-05-18T20:43:47.862Z,17.05
2018-05-18T20:46:17.877Z,11.07
2018-05-18T20:48:45.932Z,12.93
2018-05-18T20:51:13.974Z,12.02
2018-05-18T20:53:43.013Z,29.42
2018-05-18T20:56:12.017Z,13.02
2018-05-18T20:58:42.033Z,14.05
2018-05-18T21:01:27.553Z,15.20
2018-05-18T21:03:57.529Z,9.77
2018-05-18T21:06:30.392Z,16.80
2018-05-18T21:09:03.782Z,12.35
2018-05-18T21:11:32.786Z,9.68
2018-05-18T21:14:06.445Z,17.10
2018-05-18T21:16:37.541Z,12.37
2018-05-18T21:19:07.352Z,19.60
2018-05-18T21:21:37.358Z,11.45
2018-05-18T21:24:06.306Z,24.33
2018-05-18T21:26:37.734Z,13.52
2018-05-18T21:29:05.805Z,15.75
2018-05-18T21:31:33.866Z,13.43
2018-05-18T21:34:12.038Z,10.48
2018-05-18T21:36:44.838Z,11.75
2018-05-18T21:39:13.630Z,10.10
2018-05-18T21:41:44.374Z,20.90
2018-05-18T21:44:14.081Z,12.02
2018-05-18T21:46:43.085Z,13.10
2018-05-18T21:49:12.051Z,10.68
2018-05-18T21:51:47.481Z,14.73
2018-05-18T21:54:20.570Z,12.43
2018-05-18T21:56:53.213Z,12.50
2018-05-18T21:59:21.405Z,15.50
2018-05-18T22:01:50.205Z,14.18
2018-05-18T22:04:21.875Z,11.68
2018-05-18T22:06:49.913Z,16.40
2018-05-18T22:09:22.430Z,11.12
2018-05-18T22:11:56.892Z,12.37
2018-05-18T22:14:24.897Z,15.68
2018-05-18T22:16:53.837Z,12.00
2018-05-18T22:19:21.853Z,16.00
2018-05-18T22:21:57.489Z,14.20
2018-05-18T22:24:30.845Z,14.20
2018-05-18T22:27:00.837Z,14.50
2018-05-18T22:29:33.069Z,13.60
2018-05-18T22:32:02.097Z,12.48
2018-05-18T22:34:38.877Z,16.95
2018-05-18T22:37:08.685Z,16.62
2018-05-18T22:39:38.689Z,13.98
2018-05-18T22:42:09.493Z,16.40
2018-05-18T22:44:37.545Z,10.90
2018-05-18T22:47:06.496Z,12.20
2018-05-18T22:49:34.501Z,11.02
2018-05-18T22:52:19.901Z,11.93
2018-05-18T22:54:47.933Z,11.80
2018-05-18T22:57:17.962Z,15.40
2018-05-18T22:59:51.673Z,13.55
2018-05-18T23:02:21.633Z,15.43
2018-05-18T23:04:50.561Z,11.10
2018-05-18T23:07:20.579Z,12.75
2018-05-18T23:09:56.957Z,10.70
2018-05-18T23:12:24.997Z,14.65
2018-05-18T23:14:53.977Z,13.88
2018-05-18T23:17:22.885Z,13.80
2018-05-18T23:19:50.956Z,14.68
2018-05-18T23:22:25.397Z,13.30
2018-05-18T23:24:58.369Z,13.35
2018-05-18T23:27:27.342Z,15.70
2018-05-18T23:30:01.841Z,15.43
2018-05-18T23:32:30.845Z,12.05
2018-05-18T23:34:58.877Z,14.40
2018-05-18T23:37:27.892Z,14.73
2018-05-18T23:40:00.616Z,19.50
2018-05-18T23:42:29.564Z,15.52
2018-05-18T23:44:58.420Z,15.02
2018-05-18T23:47:27.345Z,17.58
2018-05-18T23:49:57.368Z,15.75
2018-05-18T23:52:25.392Z,13.38
2018-05-18T23:54:54.328Z,12.68
2018-05-18T23:57:23.264Z,16.08
2018-05-18T23:59:51.280Z,16.00
